createdAt,value
2023-04-11T00:01:04.229Z,79.76
2023-04-11T00:03:52.836Z,79.79
2023-04-11T00:06:40.235Z,79.57
2023-04-11T00:09:27.727Z,79.68
2023-04-11T00:12:15.300Z,80.00
2023-04-11T00:15:03.208Z,80.17
2023-04-11T00:17:50.605Z,80.41
2023-04-11T00:20:38.182Z,80.44
2023-04-11T00:23:25.318Z,80.58
2023-04-11T00:26:12.975Z,80.65
2023-04-11T00:29:00.693Z,80.63
2023-04-11T00:31:48.413Z,80.60
2023-04-11T00:34:36.377Z,80.69
2023-04-11T00:37:23.781Z,80.49
2023-04-11T00:40:13.551Z,80.30
2023-04-11T00:43:01.233Z,80.31
2023-04-11T00:45:48.472Z,80.17
2023-04-11T00:48:36.089Z,79.91
2023-04-11T00:51:23.343Z,79.74
2023-04-11T00:54:11.686Z,79.74
2023-04-11T00:57:01.089Z,79.64
2023-04-11T00:59:48.743Z,79.54
2023-04-11T01:03:41.679Z,79.45
2023-04-11T01:06:30.577Z,79.46
2023-04-11T01:09:21.001Z,79.75
2023-04-11T01:12:10.151Z,79.77
2023-04-11T01:14:58.402Z,79.94
2023-04-11T01:17:47.389Z,79.92
2023-04-11T01:20:34.898Z,80.00
2023-04-11T01:23:25.732Z,80.22
2023-04-11T01:26:13.189Z,80.45
2023-04-11T01:29:02.050Z,80.59
2023-04-11T01:31:50.927Z,80.50
2023-04-11T01:34:43.059Z,80.58
2023-04-11T01:37:30.822Z,80.62
2023-04-11T01:40:18.997Z,80.91
2023-04-11T01:43:08.628Z,81.02
2023-04-11T01:45:56.783Z,81.13
2023-04-11T01:48:47.491Z,81.20
2023-04-11T01:51:35.882Z,81.26
2023-04-11T01:54:23.184Z,81.09
2023-04-11T01:57:10.780Z,81.05
2023-04-11T01:59:58.511Z,81.09
2023-04-11T02:02:45.855Z,81.17
2023-04-11T02:05:33.350Z,81.21
2023-04-11T02:08:20.951Z,81.09
2023-04-11T02:11:08.456Z,81.57
2023-04-11T02:13:56.124Z,81.78
2023-04-11T02:16:54.400Z,81.73
2023-04-11T02:19:45.101Z,81.87
2023-04-11T02:22:32.527Z,81.96
2023-04-11T02:25:19.910Z,82.36
2023-04-11T02:28:08.223Z,82.53
2023-04-11T02:30:55.863Z,82.70
2023-04-11T02:33:43.071Z,82.70
2023-04-11T02:36:31.331Z,82.90
2023-04-11T02:39:23.022Z,83.23
2023-04-11T02:42:12.707Z,83.49
2023-04-11T02:45:00.282Z,83.62
2023-04-11T02:47:49.334Z,83.46
2023-04-11T02:50:40.313Z,83.10
2023-04-11T02:53:27.742Z,83.07
2023-04-11T02:56:18.292Z,83.16
2023-04-11T02:59:07.131Z,83.21
2023-04-11T03:01:58.791Z,83.06
2023-04-11T03:04:46.392Z,82.72
2023-04-11T03:07:37.961Z,82.48
2023-04-11T03:10:25.484Z,82.14
2023-04-11T03:13:12.908Z,82.04
2023-04-11T03:16:00.254Z,82.22
2023-04-11T03:18:48.420Z,82.14
2023-04-11T03:21:35.668Z,81.95
2023-04-11T03:24:23.437Z,81.83
2023-04-11T03:27:11.511Z,81.98
2023-04-11T03:30:00.695Z,82.01
2023-04-11T03:32:55.317Z,81.75
2023-04-11T03:35:42.741Z,81.73
2023-04-11T03:38:30.122Z,81.74
2023-04-11T03:41:19.018Z,81.65
2023-04-11T03:44:06.696Z,81.63
2023-04-11T03:46:54.353Z,81.54
2023-04-11T03:49:42.167Z,81.62
2023-04-11T03:52:30.171Z,81.85
2023-04-11T03:55:17.904Z,82.17
2023-04-11T03:58:06.296Z,82.40
2023-04-11T04:00:53.788Z,82.51
2023-04-11T04:03:41.507Z,82.48
2023-04-11T04:06:31.397Z,82.68
2023-04-11T04:09:19.079Z,83.00
2023-04-11T04:12:09.968Z,83.54
2023-04-11T04:15:20.853Z,83.75
2023-04-11T04:18:09.017Z,84.11
2023-04-11T04:21:25.986Z,84.40
2023-04-11T04:24:16.035Z,84.44
2023-04-11T04:27:29.963Z,84.40
2023-04-11T04:30:18.439Z,84.43
2023-04-11T04:33:27.652Z,84.47
2023-04-11T04:36:17.236Z,84.91
2023-04-11T04:39:05.864Z,85.35
2023-04-11T04:41:59.356Z,85.40
2023-04-11T04:44:53.671Z,84.27
2023-04-11T04:47:41.640Z,83.05
2023-04-11T04:50:29.441Z,81.84
2023-04-11T04:53:16.917Z,80.02
2023-04-11T04:56:11.179Z,78.91
2023-04-11T04:59:05.654Z,79.42
2023-04-11T05:01:56.184Z,79.22
2023-04-11T05:04:49.658Z,78.65
2023-04-11T05:07:37.620Z,78.58
2023-04-11T05:10:25.752Z,79.05
2023-04-11T05:13:13.806Z,79.76
2023-04-11T05:16:01.746Z,80.36
2023-04-11T05:18:49.652Z,81.00
2023-04-11T05:21:38.132Z,81.72
2023-04-11T05:24:26.589Z,82.22
2023-04-11T05:27:15.020Z,82.80
2023-04-11T05:30:03.326Z,83.11
2023-04-11T05:32:53.460Z,83.47
2023-04-11T05:35:41.610Z,83.73
2023-04-11T05:38:29.134Z,83.80
2023-04-11T05:41:17.056Z,84.16
2023-04-11T05:44:04.350Z,84.24
2023-04-11T05:46:51.736Z,84.18
2023-04-11T05:49:38.992Z,84.20
2023-04-11T05:52:26.466Z,84.11
2023-04-11T05:55:13.653Z,83.92
2023-04-11T05:58:01.012Z,83.86
2023-04-11T06:00:49.036Z,83.67
2023-04-11T06:03:36.747Z,83.77
2023-04-11T06:06:25.204Z,83.56
2023-04-11T06:09:13.121Z,83.61
2023-04-11T06:12:00.871Z,83.53
2023-04-11T06:14:48.712Z,83.30
2023-04-11T06:17:35.960Z,83.16
2023-04-11T06:20:24.158Z,82.86
2023-04-11T06:23:11.313Z,82.66
2023-04-11T06:25:58.838Z,82.39
2023-04-11T06:28:46.076Z,82.06
2023-04-11T06:31:33.650Z,81.93
2023-04-11T06:34:21.291Z,81.78
2023-04-11T06:37:09.320Z,81.62
2023-04-11T06:39:59.604Z,81.35
2023-04-11T06:42:47.485Z,80.89
2023-04-11T06:45:35.670Z,80.48
2023-04-11T06:48:23.817Z,80.49
2023-04-11T06:51:11.131Z,80.87
2023-04-11T06:53:58.915Z,80.44
2023-04-11T06:56:46.780Z,79.94
2023-04-11T06:59:34.338Z,80.05
2023-04-11T07:02:24.481Z,80.06
2023-04-11T07:05:12.398Z,79.18
2023-04-11T07:08:00.428Z,78.79
2023-04-11T07:10:47.974Z,78.32
2023-04-11T07:13:35.345Z,77.61
2023-04-11T07:16:23.095Z,77.40
2023-04-11T07:19:10.483Z,76.82
2023-04-11T07:21:58.085Z,76.87
2023-04-11T07:24:46.586Z,76.08
2023-04-11T07:27:35.802Z,76.34
2023-04-11T07:30:23.477Z,76.15
2023-04-11T07:33:11.011Z,76.13
2023-04-11T07:35:58.459Z,75.88
2023-04-11T07:38:46.276Z,76.24
2023-04-11T07:41:33.451Z,75.82
2023-04-11T07:44:20.894Z,75.42
2023-04-11T07:47:08.239Z,74.84
2023-04-11T07:49:55.761Z,74.62
2023-04-11T07:52:42.902Z,74.30
2023-04-11T07:55:30.548Z,74.15
2023-04-11T07:58:17.777Z,74.07
2023-04-11T08:01:08.618Z,74.01
2023-04-11T08:03:56.768Z,73.97
2023-04-11T08:06:44.743Z,73.65
2023-04-11T08:09:32.311Z,73.51
2023-04-11T08:12:20.175Z,73.21
2023-04-11T08:15:07.765Z,72.89
2023-04-11T08:17:55.757Z,72.93
2023-04-11T08:20:43.025Z,72.04
2023-04-11T08:23:30.586Z,72.09
2023-04-11T08:26:17.906Z,71.30
2023-04-11T08:29:05.233Z,71.08
2023-04-11T08:31:52.374Z,71.91
2023-04-11T08:34:59.465Z,70.75
2023-04-11T08:37:59.515Z,69.33
2023-04-11T08:40:46.984Z,70.27
2023-04-11T08:43:35.385Z,70.18
2023-04-11T08:46:22.913Z,69.70
2023-04-11T08:49:10.483Z,68.94
2023-04-11T08:51:58.087Z,68.80
2023-04-11T08:54:50.875Z,68.95
2023-04-11T08:57:38.466Z,68.16
2023-04-11T09:00:28.373Z,68.44
2023-04-11T09:03:16.465Z,68.68
2023-04-11T09:06:10.347Z,68.59
2023-04-11T09:08:59.349Z,68.12
2023-04-11T09:11:54.273Z,66.76
2023-04-11T09:14:41.775Z,66.43
2023-04-11T09:17:40.229Z,65.99
2023-04-11T09:20:30.788Z,66.11
2023-04-11T09:23:22.190Z,65.34
2023-04-11T09:26:11.668Z,65.17
2023-04-11T09:28:59.251Z,65.69
2023-04-11T09:31:46.924Z,65.55
2023-04-11T09:34:36.966Z,65.71
2023-04-11T09:37:24.436Z,65.56
2023-04-11T09:40:12.491Z,65.33
2023-04-11T09:43:01.938Z,65.91
2023-04-11T09:46:07.154Z,65.72
2023-04-11T09:48:55.577Z,64.95
2023-04-11T09:51:42.735Z,64.95
2023-04-11T09:54:31.662Z,65.24
2023-04-11T09:57:21.943Z,64.94
2023-04-11T10:00:19.108Z,65.03
2023-04-11T10:03:06.417Z,64.90
2023-04-11T10:05:55.269Z,64.16
2023-04-11T10:08:43.312Z,64.23
2023-04-11T10:11:31.076Z,64.97
2023-04-11T10:14:38.528Z,64.55
2023-04-11T10:17:26.811Z,64.46
2023-04-11T10:20:40.028Z,64.60
2023-04-11T10:23:27.733Z,63.43
2023-04-11T10:26:14.973Z,63.28
2023-04-11T10:29:02.414Z,63.96
2023-04-11T10:32:11.499Z,63.76
2023-04-11T10:35:01.687Z,63.71
2023-04-11T10:37:49.796Z,62.52
2023-04-11T10:41:18.654Z,62.56
2023-04-11T10:44:24.137Z,62.86
2023-04-11T10:47:17.028Z,62.43
2023-04-11T10:50:27.023Z,62.47
2023-04-11T10:53:36.714Z,62.52
2023-04-11T10:56:43.491Z,62.89
2023-04-11T10:59:33.884Z,62.01
2023-04-11T11:02:26.086Z,61.88
2023-04-11T11:05:17.502Z,61.46
2023-04-11T11:08:05.243Z,61.60
2023-04-11T11:10:53.257Z,61.30
2023-04-11T11:13:43.022Z,60.68
2023-04-11T11:16:33.708Z,60.86
2023-04-11T11:19:23.050Z,61.27
2023-04-11T11:22:15.088Z,61.85
2023-04-11T11:25:09.414Z,61.92
2023-04-11T11:28:08.459Z,62.12
2023-04-11T11:30:56.648Z,60.95
2023-04-11T11:33:44.270Z,59.84
2023-04-11T11:36:35.151Z,60.38
2023-04-11T11:39:23.942Z,60.78
2023-04-11T11:42:11.426Z,61.71
2023-04-11T11:45:19.309Z,61.27
2023-04-11T11:48:06.730Z,61.47
2023-04-11T11:50:57.815Z,62.18
2023-04-11T11:54:00.530Z,62.14
2023-04-11T11:56:54.176Z,60.63
2023-04-11T11:59:41.544Z,61.10
2023-04-11T12:02:33.380Z,60.75
2023-04-11T12:05:24.177Z,61.52
2023-04-11T12:08:11.689Z,61.51
2023-04-11T12:10:58.855Z,61.45
2023-04-11T12:13:51.804Z,61.19
2023-04-11T12:16:38.988Z,60.42
2023-04-11T12:19:26.826Z,61.12
2023-04-11T12:22:14.097Z,60.97
2023-04-11T12:25:09.853Z,61.37
2023-04-11T12:27:57.203Z,61.77
2023-04-11T12:30:44.672Z,60.85
2023-04-11T12:33:32.004Z,60.45
2023-04-11T12:36:21.097Z,60.08
2023-04-11T12:39:08.875Z,60.55
2023-04-11T12:41:56.430Z,60.51
2023-04-11T12:44:44.106Z,60.72
2023-04-11T12:47:31.689Z,60.22
2023-04-11T12:50:19.050Z,59.59
2023-04-11T12:53:06.494Z,59.35
2023-04-11T12:55:54.047Z,59.35
2023-04-11T12:58:41.657Z,59.63
2023-04-11T13:01:29.205Z,59.30
2023-04-11T13:04:17.390Z,59.92
2023-04-11T13:07:05.730Z,59.06
2023-04-11T13:09:53.230Z,59.71
2023-04-11T13:12:43.583Z,59.25
2023-04-11T13:15:31.271Z,58.87
2023-04-11T13:18:18.622Z,59.01
2023-04-11T13:21:06.719Z,59.13
2023-04-11T13:23:55.651Z,59.71
2023-04-11T13:26:44.426Z,59.66
2023-04-11T13:29:31.764Z,60.17
2023-04-11T13:32:19.257Z,59.94
2023-04-11T13:35:07.028Z,59.85
2023-04-11T13:37:54.604Z,60.50
2023-04-11T13:40:42.101Z,60.68
2023-04-11T13:43:30.110Z,61.05
2023-04-11T13:46:17.931Z,60.58
2023-04-11T13:49:05.659Z,60.25
2023-04-11T13:51:52.906Z,60.48
2023-04-11T13:54:40.616Z,60.67
2023-04-11T13:57:27.988Z,60.64
2023-04-11T14:00:16.392Z,60.75
2023-04-11T14:03:05.184Z,61.22
2023-04-11T14:05:52.811Z,61.07
2023-04-11T14:08:40.631Z,60.86
2023-04-11T14:11:29.422Z,60.78
2023-04-11T14:14:16.771Z,60.86
2023-04-11T14:17:04.252Z,60.58
2023-04-11T14:19:51.556Z,61.17
2023-04-11T14:22:40.381Z,61.26
2023-04-11T14:25:27.587Z,61.76
2023-04-11T14:28:16.268Z,61.39
2023-04-11T14:31:03.912Z,61.18
2023-04-11T14:33:52.982Z,60.71
2023-04-11T14:36:40.203Z,60.69
2023-04-11T14:39:27.752Z,60.78
2023-04-11T14:42:15.103Z,60.66
2023-04-11T14:45:03.898Z,60.89
2023-04-11T14:47:51.661Z,60.71
2023-04-11T14:50:39.184Z,60.51
2023-04-11T14:53:26.535Z,60.88
2023-04-11T14:56:14.145Z,61.09
2023-04-11T14:59:02.005Z,61.40
2023-04-11T15:01:50.008Z,61.60
2023-04-11T15:04:37.272Z,61.55
2023-04-11T15:07:24.668Z,61.48
2023-04-11T15:10:13.496Z,61.99
2023-04-11T15:13:00.984Z,62.22
2023-04-11T15:15:48.392Z,62.18
2023-04-11T15:18:35.885Z,62.53
2023-04-11T15:21:23.323Z,63.13
2023-04-11T15:24:11.091Z,63.64
2023-04-11T15:26:58.388Z,64.18
2023-04-11T15:29:46.223Z,64.58
2023-04-11T15:32:33.641Z,64.63
2023-04-11T15:35:21.789Z,64.95
2023-04-11T15:38:09.944Z,65.05
2023-04-11T15:40:59.293Z,64.80
2023-04-11T15:43:46.654Z,64.79
2023-04-11T15:46:34.194Z,65.52
2023-04-11T15:49:21.651Z,66.17
2023-04-11T15:52:09.185Z,66.34
2023-04-11T15:54:56.485Z,67.07
2023-04-11T15:57:44.192Z,68.23
2023-04-11T16:00:33.895Z,68.71
2023-04-11T16:03:24.536Z,68.70
2023-04-11T16:06:11.851Z,69.44
2023-04-11T16:08:59.373Z,70.29
2023-04-11T16:11:47.321Z,71.05
2023-04-11T16:14:35.137Z,71.33
2023-04-11T16:17:22.305Z,72.00
2023-04-11T16:20:18.232Z,72.42
2023-04-11T16:23:05.665Z,72.31
2023-04-11T16:25:53.242Z,71.87
2023-04-11T16:28:40.811Z,71.85
2023-04-11T16:31:28.552Z,72.28
2023-04-11T16:34:16.310Z,72.28
2023-04-11T16:37:05.234Z,72.30
2023-04-11T16:39:52.592Z,72.47
2023-04-11T16:42:40.405Z,72.31
2023-04-11T16:45:27.860Z,72.51
2023-04-11T16:48:15.829Z,72.78
2023-04-11T16:51:03.206Z,72.76
2023-04-11T16:53:52.695Z,72.67
2023-04-11T16:56:40.104Z,72.80
2023-04-11T16:59:27.613Z,73.07
2023-04-11T17:02:15.621Z,73.01
2023-04-11T17:05:04.287Z,73.19
2023-04-11T17:07:52.440Z,73.06
2023-04-11T17:10:40.117Z,73.37
2023-04-11T17:13:27.419Z,73.48
2023-04-11T17:16:17.112Z,73.56
2023-04-11T17:19:04.474Z,73.46
2023-04-11T17:21:51.946Z,73.85
2023-04-11T17:24:39.972Z,73.73
2023-04-11T17:27:28.051Z,73.91
2023-04-11T17:30:16.119Z,73.98
2023-04-11T17:33:04.071Z,74.22
2023-04-11T17:35:51.899Z,74.20
2023-04-11T17:38:41.533Z,74.22
2023-04-11T17:41:28.935Z,74.33
2023-04-11T17:44:17.321Z,74.39
2023-04-11T17:47:06.032Z,74.57
2023-04-11T17:49:55.060Z,74.82
2023-04-11T17:52:45.503Z,74.77
2023-04-11T17:55:32.985Z,75.06
2023-04-11T17:58:22.194Z,75.35
2023-04-11T18:01:12.836Z,75.49
2023-04-11T18:04:01.680Z,75.79
2023-04-11T18:06:49.837Z,75.74
2023-04-11T18:09:37.255Z,76.04
2023-04-11T18:12:29.427Z,76.18
2023-04-11T18:15:17.430Z,76.41
2023-04-11T18:18:09.062Z,76.64
2023-04-11T18:21:02.718Z,76.67
2023-04-11T18:23:51.606Z,76.84
2023-04-11T18:26:39.030Z,77.14
2023-04-11T18:29:26.750Z,77.44
2023-04-11T18:32:14.068Z,77.56
2023-04-11T18:35:04.317Z,77.88
2023-04-11T18:37:52.747Z,77.81
2023-04-11T18:40:40.877Z,77.98
2023-04-11T18:43:28.353Z,77.89
2023-04-11T18:46:16.094Z,78.08
2023-04-11T18:49:04.349Z,78.18
2023-04-11T18:51:52.476Z,78.33
2023-04-11T18:54:39.780Z,78.46
2023-04-11T18:57:30.386Z,78.50
2023-04-11T19:00:20.223Z,78.66
2023-04-11T19:03:14.905Z,78.70
2023-04-11T19:06:02.693Z,78.80
2023-04-11T19:08:50.371Z,79.22
2023-04-11T19:11:37.967Z,79.40
2023-04-11T19:14:25.646Z,79.51
2023-04-11T19:17:13.087Z,79.57
2023-04-11T19:20:02.120Z,79.81
2023-04-11T19:22:51.586Z,80.09
2023-04-11T19:25:39.339Z,80.18
2023-04-11T19:28:27.041Z,80.43
2023-04-11T19:31:14.766Z,80.35
2023-04-11T19:34:04.188Z,80.52
2023-04-11T19:36:52.246Z,80.79
2023-04-11T19:39:41.040Z,80.89
2023-04-11T19:42:32.524Z,80.95
2023-04-11T19:45:20.098Z,81.20
2023-04-11T19:48:08.347Z,81.24
2023-04-11T19:50:55.685Z,81.45
2023-04-11T19:53:45.829Z,81.61
2023-04-11T19:56:34.031Z,81.80
2023-04-11T19:59:21.922Z,81.92
2023-04-11T20:02:09.691Z,82.05
2023-04-11T20:04:57.589Z,82.07
2023-04-11T20:07:49.074Z,82.20
2023-04-11T20:10:37.944Z,82.32
2023-04-11T20:13:26.018Z,82.05
2023-04-11T20:16:13.863Z,82.12
2023-04-11T20:19:03.231Z,82.36
2023-04-11T20:21:52.060Z,82.06
2023-04-11T20:24:39.668Z,82.08
2023-04-11T20:27:28.371Z,82.12
2023-04-11T20:30:17.078Z,82.43
2023-04-11T20:33:04.568Z,82.26
2023-04-11T20:35:55.168Z,82.49
2023-04-11T20:38:42.803Z,82.32
2023-04-11T20:41:30.311Z,82.49
2023-04-11T20:44:20.478Z,82.59
2023-04-11T20:47:08.569Z,82.75
2023-04-11T20:49:56.904Z,82.55
2023-04-11T20:52:46.186Z,82.61
2023-04-11T20:55:33.497Z,82.76
2023-04-11T20:58:21.347Z,82.78
2023-04-11T21:01:08.674Z,82.86
2023-04-11T21:03:56.917Z,82.84
2023-04-11T21:06:45.601Z,82.93
2023-04-11T21:09:33.346Z,82.97
2023-04-11T21:12:21.199Z,83.04
2023-04-11T21:15:09.277Z,82.92
2023-04-11T21:17:56.596Z,82.86
2023-04-11T21:20:43.958Z,82.89
2023-04-11T21:23:31.341Z,82.78
2023-04-11T21:26:18.892Z,82.74
2023-04-11T21:29:06.097Z,83.07
2023-04-11T21:31:53.519Z,82.93
2023-04-11T21:34:41.042Z,82.95
2023-04-11T21:37:28.437Z,83.12
2023-04-11T21:40:16.300Z,83.25
2023-04-11T21:43:04.950Z,83.34
2023-04-11T21:45:52.269Z,83.35
2023-04-11T21:48:42.267Z,83.35
2023-04-11T21:51:30.183Z,83.28
2023-04-11T21:54:17.497Z,83.12
2023-04-11T21:57:05.112Z,83.04
2023-04-11T21:59:52.440Z,83.17
2023-04-11T22:02:41.330Z,83.23
2023-04-11T22:05:28.959Z,83.19
2023-04-11T22:08:19.273Z,83.20
2023-04-11T22:11:13.456Z,83.23
2023-04-11T22:14:09.825Z,83.23
2023-04-11T22:16:57.940Z,83.29
2023-04-11T22:19:49.507Z,83.22
2023-04-11T22:22:38.389Z,83.60
2023-04-11T22:25:25.676Z,83.67
2023-04-11T22:28:17.643Z,83.74
2023-04-11T22:31:05.194Z,83.75
2023-04-11T22:33:52.630Z,83.95
2023-04-11T22:36:40.035Z,83.93
2023-04-11T22:39:27.603Z,83.97
2023-04-11T22:42:15.213Z,83.73
2023-04-11T22:45:02.930Z,83.71
2023-04-11T22:47:53.554Z,83.82
2023-04-11T22:50:48.828Z,83.93
2023-04-11T22:53:41.354Z,84.18
2023-04-11T22:56:29.114Z,84.06
2023-04-11T22:59:16.542Z,84.14
2023-04-11T23:02:03.947Z,84.18
2023-04-11T23:04:51.620Z,84.52
2023-04-11T23:07:39.184Z,84.55
2023-04-11T23:10:28.208Z,84.55
2023-04-11T23:13:15.750Z,84.56
2023-04-11T23:16:03.216Z,84.78
2023-04-11T23:18:54.770Z,84.98
2023-04-11T23:21:42.381Z,85.19
2023-04-11T23:24:30.442Z,85.28
2023-04-11T23:27:18.543Z,85.32
2023-04-11T23:30:07.063Z,85.50
2023-04-11T23:32:54.391Z,85.56
2023-04-11T23:35:42.334Z,85.77
2023-04-11T23:38:29.630Z,85.67
2023-04-11T23:41:17.358Z,85.79
2023-04-11T23:44:07.088Z,85.77
2023-04-11T23:46:54.450Z,85.80
2023-04-11T23:49:41.786Z,85.84
2023-04-11T23:52:29.822Z,85.78
2023-04-11T23:55:17.225Z,85.75
2023-04-11T23:58:04.603Z,85.91
